Aérodrome :
LOGIN :

S'inscrire | Disclaimer

   EN    FR    IT 

 










Légende :    VFR   VFR Marginal   IFR   IFR Intensif   IFR Très Intensif
Visi : 
Plafond : 
>= 8 km
>= 3000ft
5 à 8 km
1000 à 3000 ft
1500m à 5 km
500 à 1000 ft
800 à 1500m
200 à 500 ft
< 800m
< 200 ft
Symboles :   Orages  Brouillard  Fortes neiges  Fortes précipitations  Vent > 20 kt
SIGMETs :   Divers  Orages  Givrage  Turbulence  Onde Orograph.  Cendres Volcan.






- Altitude de l'aérodrome : 20 ft


EBFN - Koksijde

DERNIER METAR :
  • 100455Z AUTO 22004KT 9999 NCD 00/M01 Q1025 BLU

METARs EXPIRÉS :
  • 100425Z AUTO 22005KT 9999 NCD 01/M01 Q1025 BLU
  • 100355Z AUTO 23003KT 9999 NCD 00/M01 Q1025 BLU
  • 100325Z AUTO 21005KT 9999 NCD 01/M01 Q1025 BLU
  • 100255Z AUTO 22006KT 9999 NCD 01/M01 Q1026 BLU
  • 100225Z AUTO 22006KT 9999 NCD 01/M00 Q1025 BLU

TAF TAF EBFN
Valide du 09 à 19h jusqu'au 10 à 07h UTC


091541Z 0919/1007 32025G35KT 9999 FEW022
BECMG 0923/1001 28015KT
BECMG 1002/1004 21008KT



MET'MAP, la Météo Aéronautique d'un coup d'oeil ! - Copyright ORBIFLY Décembre 2007 - Disclaimer

ORBIFLY MET'MAP TEAM :

Programmation & Développement : Alexandra Zaïnal
Sur une idée originale de : Baudouin d'Aumeries
Assistance à la programmation : Marc-Olivier Méhu
Soutien technique & logistique : Manuel Goepfert

Contact : metmap@orbifly.com




SOURCES & CREDITS :

   NOAA